sensor_id;sensor_type;location;lat;lon;timestamp;pressure;altitude;pressure_sealevel;temperature;humidity
54329;BME280;40710;51.120;13.136;2023-08-07T00:02:05;98253.34;;;18.00;72.60
54329;BME280;40710;51.120;13.136;2023-08-07T00:04:31;98237.31;;;18.10;71.71
54329;BME280;40710;51.120;13.136;2023-08-07T00:06:55;98234.16;;;18.41;70.79
54329;BME280;40710;51.120;13.136;2023-08-07T00:09:20;98243.66;;;17.91;72.80
54329;BME280;40710;51.120;13.136;2023-08-07T00:11:44;98244.81;;;18.14;71.90
54329;BME280;40710;51.120;13.136;2023-08-07T00:14:09;98234.94;;;18.67;70.18
54329;BME280;40710;51.120;13.136;2023-08-07T00:16:33;98236.75;;;18.32;70.96
54329;BME280;40710;51.120;13.136;2023-08-07T00:18:58;98251.28;;;18.12;71.79
54329;BME280;40710;51.120;13.136;2023-08-07T00:21:23;98238.56;;;17.98;71.68
54329;BME280;40710;51.120;13.136;2023-08-07T00:23:47;98235.72;;;18.25;70.05
54329;BME280;40710;51.120;13.136;2023-08-07T00:26:12;98246.97;;;18.11;71.47
54329;BME280;40710;51.120;13.136;2023-08-07T00:28:36;98234.50;;;18.11;70.11
54329;BME280;40710;51.120;13.136;2023-08-07T00:31:02;98241.63;;;17.67;72.00
54329;BME280;40710;51.120;13.136;2023-08-07T00:33:26;98248.00;;;18.18;71.13
54329;BME280;40710;51.120;13.136;2023-08-07T00:35:51;98234.25;;;18.31;70.24
54329;BME280;40710;51.120;13.136;2023-08-07T00:38:15;98229.16;;;18.38;69.75
54329;BME280;40710;51.120;13.136;2023-08-07T00:40:40;98238.25;;;18.01;70.64
54329;BME280;40710;51.120;13.136;2023-08-07T00:43:05;98231.00;;;18.11;70.48
54329;BME280;40710;51.120;13.136;2023-08-07T00:45:42;98249.38;;;17.78;71.88
54329;BME280;40710;51.120;13.136;2023-08-07T00:48:07;98232.13;;;18.35;70.28
54329;BME280;40710;51.120;13.136;2023-08-07T00:50:32;98242.91;;;18.33;70.14
54329;BME280;40710;51.120;13.136;2023-08-07T00:52:58;98221.97;;;18.73;68.61
54329;BME280;40710;51.120;13.136;2023-08-07T00:55:23;98227.16;;;18.82;68.25
54329;BME280;40710;51.120;13.136;2023-08-07T00:57:47;98228.88;;;19.00;68.01
54329;BME280;40710;51.120;13.136;2023-08-07T01:00:14;98229.25;;;18.62;69.40
54329;BME280;40710;51.120;13.136;2023-08-07T01:02:40;98233.63;;;18.80;69.71
54329;BME280;40710;51.120;13.136;2023-08-07T01:05:05;98244.78;;;18.41;70.73
54329;BME280;40710;51.120;13.136;2023-08-07T01:07:29;98242.66;;;18.52;71.21
54329;BME280;40710;51.120;13.136;2023-08-07T01:09:54;98250.44;;;18.11;72.56
54329;BME280;40710;51.120;13.136;2023-08-07T01:12:29;98252.16;;;18.55;71.02
54329;BME280;40710;51.120;13.136;2023-08-07T01:15:01;98246.41;;;18.33;71.38
54329;BME280;40710;51.120;13.136;2023-08-07T01:17:26;98238.41;;;19.19;69.29
54329;BME280;40710;51.120;13.136;2023-08-07T01:19:53;98235.03;;;18.92;69.01
54329;BME280;40710;51.120;13.136;2023-08-07T01:22:19;98233.06;;;19.11;68.78
54329;BME280;40710;51.120;13.136;2023-08-07T01:24:46;98230.28;;;18.69;69.56
54329;BME280;40710;51.120;13.136;2023-08-07T01:32:36;98233.56;;;18.63;70.42
54329;BME280;40710;51.120;13.136;2023-08-07T01:35:06;98248.91;;;18.35;71.46
54329;BME280;40710;51.120;13.136;2023-08-07T01:37:36;98252.16;;;18.55;70.37
54329;BME280;40710;51.120;13.136;2023-08-07T01:40:03;98246.50;;;18.58;70.47
54329;BME280;40710;51.120;13.136;2023-08-07T01:42:29;98238.00;;;18.89;69.26
54329;BME280;40710;51.120;13.136;2023-08-07T01:44:54;98227.94;;;19.50;67.31
54329;BME280;40710;51.120;13.136;2023-08-07T01:47:19;98246.13;;;18.45;69.91
54329;BME280;40710;51.120;13.136;2023-08-07T01:49:43;98240.59;;;18.73;69.76
54329;BME280;40710;51.120;13.136;2023-08-07T01:52:08;98251.50;;;18.61;70.69
54329;BME280;40710;51.120;13.136;2023-08-07T01:54:33;98235.13;;;18.74;69.82
54329;BME280;40710;51.120;13.136;2023-08-07T01:56:57;98226.56;;;19.21;68.17
54329;BME280;40710;51.120;13.136;2023-08-07T01:59:22;98238.00;;;18.89;68.43
54329;BME280;40710;51.120;13.136;2023-08-07T02:01:47;98238.72;;;18.99;68.56
54329;BME280;40710;51.120;13.136;2023-08-07T02:04:12;98237.19;;;18.88;69.18
54329;BME280;40710;51.120;13.136;2023-08-07T02:06:37;98238.53;;;19.01;68.94
54329;BME280;40710;51.120;13.136;2023-08-07T02:09:02;98232.91;;;19.12;67.54
54329;BME280;40710;51.120;13.136;2023-08-07T02:11:27;98244.72;;;18.67;69.05
54329;BME280;40710;51.120;13.136;2023-08-07T02:13:51;98245.16;;;18.97;68.60
54329;BME280;40710;51.120;13.136;2023-08-07T02:16:16;98239.88;;;19.05;68.36
54329;BME280;40710;51.120;13.136;2023-08-07T02:18:40;98261.13;;;17.93;71.57
54329;BME280;40710;51.120;13.136;2023-08-07T02:21:05;98243.88;;;19.01;69.24
54329;BME280;40710;51.120;13.136;2023-08-07T02:23:30;98241.09;;;19.52;67.50
54329;BME280;40710;51.120;13.136;2023-08-07T02:25:55;98240.75;;;19.30;67.78
54329;BME280;40710;51.120;13.136;2023-08-07T02:28:20;98256.22;;;19.18;67.95
54329;BME280;40710;51.120;13.136;2023-08-07T02:30:45;98262.69;;;19.07;68.48
54329;BME280;40710;51.120;13.136;2023-08-07T02:33:13;98265.50;;;19.14;68.73
54329;BME280;40710;51.120;13.136;2023-08-07T02:35:38;98263.13;;;18.86;69.14
54329;BME280;40710;51.120;13.136;2023-08-07T02:38:02;98268.66;;;19.01;68.62
54329;BME280;40710;51.120;13.136;2023-08-07T02:40:27;98272.97;;;18.94;68.66
54329;BME280;40710;51.120;13.136;2023-08-07T02:42:51;98270.66;;;18.99;68.24
54329;BME280;40710;51.120;13.136;2023-08-07T02:45:16;98267.56;;;19.37;68.03
54329;BME280;40710;51.120;13.136;2023-08-07T02:47:40;98260.25;;;19.47;67.13
54329;BME280;40710;51.120;13.136;2023-08-07T02:50:05;98270.22;;;19.29;67.37
54329;BME280;40710;51.120;13.136;2023-08-07T02:52:30;98268.22;;;19.39;67.04
54329;BME280;40710;51.120;13.136;2023-08-07T02:54:55;98274.69;;;19.28;67.96
54329;BME280;40710;51.120;13.136;2023-08-07T02:57:20;98279.03;;;19.29;67.44
54329;BME280;40710;51.120;13.136;2023-08-07T02:59:45;98280.31;;;19.08;68.14
54329;BME280;40710;51.120;13.136;2023-08-07T03:02:10;98271.69;;;19.23;67.95
54329;BME280;40710;51.120;13.136;2023-08-07T03:04:34;98293.41;;;18.59;69.13
54329;BME280;40710;51.120;13.136;2023-08-07T03:07:00;98295.28;;;18.06;71.40
54329;BME280;40710;51.120;13.136;2023-08-07T03:09:24;98292.94;;;18.29;70.61
54329;BME280;40710;51.120;13.136;2023-08-07T03:11:48;98281.84;;;18.77;69.47
54329;BME280;40710;51.120;13.136;2023-08-07T03:14:13;98284.88;;;18.47;69.66
54329;BME280;40710;51.120;13.136;2023-08-07T03:16:39;98300.16;;;18.19;71.26
54329;BME280;40710;51.120;13.136;2023-08-07T03:19:04;98301.47;;;18.15;70.91
54329;BME280;40710;51.120;13.136;2023-08-07T03:21:28;98313.47;;;18.19;71.27
54329;BME280;40710;51.120;13.136;2023-08-07T03:23:53;98323.06;;;18.12;71.85
54329;BME280;40710;51.120;13.136;2023-08-07T03:26:18;98329.16;;;17.68;72.41
54329;BME280;40710;51.120;13.136;2023-08-07T03:28:42;98329.25;;;17.94;71.86
54329;BME280;40710;51.120;13.136;2023-08-07T03:31:07;98325.16;;;18.26;70.29
54329;BME280;40710;51.120;13.136;2023-08-07T03:33:31;98320.59;;;18.71;69.64
54329;BME280;40710;51.120;13.136;2023-08-07T03:35:56;98318.84;;;19.39;67.26
54329;BME280;40710;51.120;13.136;2023-08-07T03:38:21;98329.03;;;18.93;68.13
54329;BME280;40710;51.120;13.136;2023-08-07T03:40:45;98330.72;;;18.94;67.80
54329;BME280;40710;51.120;13.136;2023-08-07T03:43:10;98325.66;;;19.33;66.56
54329;BME280;40710;51.120;13.136;2023-08-07T03:45:35;98333.28;;;19.12;66.42
54329;BME280;40710;51.120;13.136;2023-08-07T03:47:59;98324.00;;;19.32;66.33
54329;BME280;40710;51.120;13.136;2023-08-07T03:50:24;98347.25;;;19.14;66.87
54329;BME280;40710;51.120;13.136;2023-08-07T03:52:48;98327.63;;;19.23;66.32
54329;BME280;40710;51.120;13.136;2023-08-07T03:55:13;98341.88;;;19.05;67.03
54329;BME280;40710;51.120;13.136;2023-08-07T03:57:38;98350.75;;;19.14;66.93
54329;BME280;40710;51.120;13.136;2023-08-07T04:00:03;98336.47;;;19.32;66.36
54329;BME280;40710;51.120;13.136;2023-08-07T04:02:28;98331.56;;;19.70;64.68
54329;BME280;40710;51.120;13.136;2023-08-07T04:04:54;98339.13;;;19.32;66.13
54329;BME280;40710;51.120;13.136;2023-08-07T04:07:18;98340.34;;;19.45;65.87
54329;BME280;40710;51.120;13.136;2023-08-07T04:09:43;98339.19;;;19.48;65.62
54329;BME280;40710;51.120;13.136;2023-08-07T04:12:08;98348.78;;;19.24;66.20
54329;BME280;40710;51.120;13.136;2023-08-07T04:14:33;98348.88;;;19.57;65.54
54329;BME280;40710;51.120;13.136;2023-08-07T04:16:58;98359.94;;;19.28;66.03
54329;BME280;40710;51.120;13.136;2023-08-07T04:19:25;98370.44;;;19.30;66.63
54329;BME280;40710;51.120;13.136;2023-08-07T04:21:50;98366.69;;;19.65;65.34
54329;BME280;40710;51.120;13.136;2023-08-07T04:24:14;98361.34;;;19.49;65.29
54329;BME280;40710;51.120;13.136;2023-08-07T04:26:39;98364.59;;;19.26;65.84
54329;BME280;40710;51.120;13.136;2023-08-07T04:29:04;98357.09;;;19.89;64.67
54329;BME280;40710;51.120;13.136;2023-08-07T04:31:29;98356.69;;;19.42;65.28
54329;BME280;40710;51.120;13.136;2023-08-07T04:33:56;98353.75;;;19.78;64.41
54329;BME280;40710;51.120;13.136;2023-08-07T04:36:20;98360.41;;;19.82;64.68
54329;BME280;40710;51.120;13.136;2023-08-07T04:38:45;98359.75;;;19.80;64.58
54329;BME280;40710;51.120;13.136;2023-08-07T04:41:11;98364.06;;;19.14;66.00
54329;BME280;40710;51.120;13.136;2023-08-07T04:43:36;98383.53;;;18.54;68.50
54329;BME280;40710;51.120;13.136;2023-08-07T04:46:00;98386.88;;;18.82;68.47
54329;BME280;40710;51.120;13.136;2023-08-07T04:48:25;98389.22;;;18.59;69.62
54329;BME280;40710;51.120;13.136;2023-08-07T04:50:50;98383.94;;;18.67;68.44
54329;BME280;40710;51.120;13.136;2023-08-07T04:53:14;98381.59;;;19.25;66.99
54329;BME280;40710;51.120;13.136;2023-08-07T04:55:39;98386.88;;;19.17;66.61
54329;BME280;40710;51.120;13.136;2023-08-07T04:58:04;98391.47;;;19.41;65.51
54329;BME280;40710;51.120;13.136;2023-08-07T05:00:28;98388.47;;;19.44;65.96
54329;BME280;40710;51.120;13.136;2023-08-07T05:02:53;98394.84;;;19.08;65.67
54329;BME280;40710;51.120;13.136;2023-08-07T05:05:18;98396.81;;;19.06;66.88
54329;BME280;40710;51.120;13.136;2023-08-07T05:07:45;98398.72;;;18.62;68.54
54329;BME280;40710;51.120;13.136;2023-08-07T05:10:09;98411.16;;;18.35;68.49
54329;BME280;40710;51.120;13.136;2023-08-07T05:12:34;98412.00;;;18.18;69.14
54329;BME280;40710;51.120;13.136;2023-08-07T05:14:59;98410.50;;;18.59;68.52
54329;BME280;40710;51.120;13.136;2023-08-07T05:17:23;98415.41;;;18.28;69.11
54329;BME280;40710;51.120;13.136;2023-08-07T05:19:48;98409.31;;;18.80;67.58
54329;BME280;40710;51.120;13.136;2023-08-07T05:22:13;98401.84;;;19.18;66.18
54329;BME280;40710;51.120;13.136;2023-08-07T05:24:38;98412.25;;;18.50;68.24
54329;BME280;40710;51.120;13.136;2023-08-07T05:27:03;98416.66;;;18.60;67.96
54329;BME280;40710;51.120;13.136;2023-08-07T05:29:27;98420.13;;;18.34;68.68
54329;BME280;40710;51.120;13.136;2023-08-07T05:31:53;98412.69;;;18.64;67.82
54329;BME280;40710;51.120;13.136;2023-08-07T05:34:18;98412.72;;;18.46;68.38
54329;BME280;40710;51.120;13.136;2023-08-07T05:36:42;98413.78;;;18.79;67.56
54329;BME280;40710;51.120;13.136;2023-08-07T05:39:07;98415.38;;;18.64;67.91
54329;BME280;40710;51.120;13.136;2023-08-07T05:41:31;98417.00;;;18.83;67.11
54329;BME280;40710;51.120;13.136;2023-08-07T05:43:56;98426.00;;;18.64;67.07
54329;BME280;40710;51.120;13.136;2023-08-07T05:46:21;98432.75;;;18.58;67.85
54329;BME280;40710;51.120;13.136;2023-08-07T05:48:46;98439.31;;;18.46;68.68
54329;BME280;40710;51.120;13.136;2023-08-07T05:51:10;98443.78;;;18.19;69.33
54329;BME280;40710;51.120;13.136;2023-08-07T05:53:35;98447.94;;;18.04;68.84
54329;BME280;40710;51.120;13.136;2023-08-07T05:55:59;98458.91;;;18.01;69.11
54329;BME280;40710;51.120;13.136;2023-08-07T05:58:24;98450.16;;;18.26;68.40
54329;BME280;40710;51.120;13.136;2023-08-07T06:00:50;98448.84;;;18.48;67.97
54329;BME280;40710;51.120;13.136;2023-08-07T06:03:15;98448.38;;;18.35;67.61
54329;BME280;40710;51.120;13.136;2023-08-07T06:05:39;98448.56;;;18.78;66.79
54329;BME280;40710;51.120;13.136;2023-08-07T06:08:05;98447.69;;;18.95;66.03
54329;BME280;40710;51.120;13.136;2023-08-07T06:10:29;98459.03;;;18.79;66.15
54329;BME280;40710;51.120;13.136;2023-08-07T06:12:54;98463.59;;;18.43;67.03
54329;BME280;40710;51.120;13.136;2023-08-07T06:15:19;98458.97;;;18.45;67.02
54329;BME280;40710;51.120;13.136;2023-08-07T06:17:43;98465.03;;;18.55;67.26
54329;BME280;40710;51.120;13.136;2023-08-07T06:20:08;98457.63;;;18.85;66.06
54329;BME280;40710;51.120;13.136;2023-08-07T06:22:34;98456.75;;;18.40;66.27
54329;BME280;40710;51.120;13.136;2023-08-07T06:24:59;98458.88;;;18.99;65.08
54329;BME280;40710;51.120;13.136;2023-08-07T06:27:23;98462.78;;;19.13;65.33
54329;BME280;40710;51.120;13.136;2023-08-07T06:29:48;98470.81;;;18.50;66.37
54329;BME280;40710;51.120;13.136;2023-08-07T06:32:12;98464.16;;;18.73;66.38
54329;BME280;40710;51.120;13.136;2023-08-07T06:34:38;98485.34;;;18.20;67.48
54329;BME280;40710;51.120;13.136;2023-08-07T06:37:02;98469.41;;;18.64;66.39
54329;BME280;40710;51.120;13.136;2023-08-07T06:39:27;98478.72;;;18.24;67.15
54329;BME280;40710;51.120;13.136;2023-08-07T06:41:52;98481.59;;;18.49;66.98
54329;BME280;40710;51.120;13.136;2023-08-07T06:44:16;98497.13;;;18.36;67.31
54329;BME280;40710;51.120;13.136;2023-08-07T06:46:42;98502.97;;;18.57;66.59
54329;BME280;40710;51.120;13.136;2023-08-07T06:49:06;98502.38;;;18.27;67.74
54329;BME280;40710;51.120;13.136;2023-08-07T06:51:31;98491.75;;;18.71;66.13
54329;BME280;40710;51.120;13.136;2023-08-07T06:53:56;98506.59;;;18.38;67.79
54329;BME280;40710;51.120;13.136;2023-08-07T06:56:21;98509.72;;;18.51;67.10
54329;BME280;40710;51.120;13.136;2023-08-07T06:58:46;98500.50;;;18.82;66.32
54329;BME280;40710;51.120;13.136;2023-08-07T07:01:11;98515.50;;;18.47;66.64
54329;BME280;40710;51.120;13.136;2023-08-07T07:03:35;98521.13;;;18.62;66.25
54329;BME280;40710;51.120;13.136;2023-08-07T07:06:00;98517.78;;;18.24;66.50
54329;BME280;40710;51.120;13.136;2023-08-07T07:08:25;98516.88;;;18.69;66.02
54329;BME280;40710;51.120;13.136;2023-08-07T07:10:49;98516.06;;;19.21;64.99
54329;BME280;40710;51.120;13.136;2023-08-07T07:13:14;98511.31;;;19.33;63.90
54329;BME280;40710;51.120;13.136;2023-08-07T07:15:38;98529.56;;;18.57;65.94
54329;BME280;40710;51.120;13.136;2023-08-07T07:18:03;98521.13;;;18.44;65.65
54329;BME280;40710;51.120;13.136;2023-08-07T07:20:28;98525.03;;;18.76;65.23
54329;BME280;40710;51.120;13.136;2023-08-07T07:22:52;98532.31;;;18.65;65.59
54329;BME280;40710;51.120;13.136;2023-08-07T07:25:17;98531.22;;;18.76;64.89
54329;BME280;40710;51.120;13.136;2023-08-07T07:27:42;98529.94;;;18.62;64.47
54329;BME280;40710;51.120;13.136;2023-08-07T07:30:07;98537.81;;;19.08;64.59
54329;BME280;40710;51.120;13.136;2023-08-07T07:32:32;98543.28;;;18.70;65.42
54329;BME280;40710;51.120;13.136;2023-08-07T07:34:56;98544.00;;;18.55;65.52
54329;BME280;40710;51.120;13.136;2023-08-07T07:37:21;98547.38;;;18.57;65.88
54329;BME280;40710;51.120;13.136;2023-08-07T07:39:46;98542.41;;;19.24;64.35
54329;BME280;40710;51.120;13.136;2023-08-07T07:42:10;98543.97;;;19.08;64.35
54329;BME280;40710;51.120;13.136;2023-08-07T07:44:35;98549.09;;;18.84;64.44
54329;BME280;40710;51.120;13.136;2023-08-07T07:47:00;98547.25;;;18.66;65.19
54329;BME280;40710;51.120;13.136;2023-08-07T07:49:25;98544.47;;;19.38;62.90
54329;BME280;40710;51.120;13.136;2023-08-07T07:51:50;98543.00;;;19.44;62.99
54329;BME280;40710;51.120;13.136;2023-08-07T07:54:14;98545.38;;;19.21;63.24
54329;BME280;40710;51.120;13.136;2023-08-07T07:56:39;98533.44;;;19.94;61.15
54329;BME280;40710;51.120;13.136;2023-08-07T07:59:04;98534.13;;;19.35;62.51
54329;BME280;40710;51.120;13.136;2023-08-07T08:01:28;98541.47;;;19.68;62.50
54329;BME280;40710;51.120;13.136;2023-08-07T08:03:53;98528.66;;;20.14;60.60
54329;BME280;40710;51.120;13.136;2023-08-07T08:06:17;98531.94;;;19.99;61.04
54329;BME280;40710;51.120;13.136;2023-08-07T08:08:42;98527.28;;;19.93;61.11
54329;BME280;40710;51.120;13.136;2023-08-07T08:11:07;98537.53;;;20.31;61.16
54329;BME280;40710;51.120;13.136;2023-08-07T08:13:32;98544.06;;;19.86;61.64
54329;BME280;40710;51.120;13.136;2023-08-07T08:15:57;98550.66;;;20.16;61.01
54329;BME280;40710;51.120;13.136;2023-08-07T08:18:22;98552.84;;;19.43;62.10
54329;BME280;40710;51.120;13.136;2023-08-07T08:20:48;98552.47;;;19.99;61.04
54329;BME280;40710;51.120;13.136;2023-08-07T08:23:13;98556.88;;;19.82;61.47
54329;BME280;40710;51.120;13.136;2023-08-07T08:25:37;98565.91;;;19.55;61.91
54329;BME280;40710;51.120;13.136;2023-08-07T08:28:02;98549.09;;;20.64;59.36
54329;BME280;40710;51.120;13.136;2023-08-07T08:30:28;98541.94;;;20.98;59.04
54329;BME280;40710;51.120;13.136;2023-08-07T08:32:52;98545.56;;;20.55;59.17
54329;BME280;40710;51.120;13.136;2023-08-07T08:35:17;98567.88;;;19.53;60.87
54329;BME280;40710;51.120;13.136;2023-08-07T08:37:42;98547.09;;;20.83;58.46
54329;BME280;40710;51.120;13.136;2023-08-07T08:40:08;98569.75;;;19.95;59.86
54329;BME280;40710;51.120;13.136;2023-08-07T08:42:38;98569.75;;;19.87;60.13
54329;BME280;40710;51.120;13.136;2023-08-07T08:45:04;98575.72;;;20.31;59.13
54329;BME280;40710;51.120;13.136;2023-08-07T08:47:31;98557.41;;;20.61;58.57
54329;BME280;40710;51.120;13.136;2023-08-07T08:50:01;98559.13;;;20.87;57.71
54329;BME280;40710;51.120;13.136;2023-08-07T08:52:31;98563.78;;;20.93;57.38
54329;BME280;40710;51.120;13.136;2023-08-07T08:54:57;98561.13;;;20.76;57.75
54329;BME280;40710;51.120;13.136;2023-08-07T08:57:22;98561.47;;;21.14;57.41
54329;BME280;40710;51.120;13.136;2023-08-07T08:59:49;98579.38;;;19.79;59.67
54329;BME280;40710;51.120;13.136;2023-08-07T09:02:16;98582.50;;;20.17;59.36
54329;BME280;40710;51.120;13.136;2023-08-07T09:04:41;98582.03;;;20.22;59.63
54329;BME280;40710;51.120;13.136;2023-08-07T09:07:06;98578.44;;;21.55;57.39
54329;BME280;40710;51.120;13.136;2023-08-07T09:09:31;98566.59;;;21.41;56.78
54329;BME280;40710;51.120;13.136;2023-08-07T09:11:58;98573.97;;;21.22;57.33
54329;BME280;40710;51.120;13.136;2023-08-07T09:14:33;98574.22;;;22.71;54.90
54329;BME280;40710;51.120;13.136;2023-08-07T09:17:01;98553.75;;;23.16;52.48
54329;BME280;40710;51.120;13.136;2023-08-07T09:19:26;98566.47;;;21.82;53.45
54329;BME280;40710;51.120;13.136;2023-08-07T09:21:50;98575.97;;;21.28;54.94
54329;BME280;40710;51.120;13.136;2023-08-07T09:24:15;98580.34;;;20.88;55.71
54329;BME280;40710;51.120;13.136;2023-08-07T09:26:43;98593.56;;;20.31;57.64
54329;BME280;40710;51.120;13.136;2023-08-07T09:29:08;98588.50;;;21.20;57.22
54329;BME280;40710;51.120;13.136;2023-08-07T09:31:36;98587.66;;;21.27;56.47
54329;BME280;40710;51.120;13.136;2023-08-07T09:34:01;98589.97;;;21.39;57.35
54329;BME280;40710;51.120;13.136;2023-08-07T09:36:30;98603.19;;;20.83;57.08
54329;BME280;40710;51.120;13.136;2023-08-07T09:38:55;98586.34;;;20.90;57.21
54329;BME280;40710;51.120;13.136;2023-08-07T09:41:20;98594.38;;;20.99;58.83
54329;BME280;40710;51.120;13.136;2023-08-07T09:43:44;98591.00;;;20.64;58.13
54329;BME280;40710;51.120;13.136;2023-08-07T09:46:09;98606.56;;;19.91;60.06
54329;BME280;40710;51.120;13.136;2023-08-07T09:48:42;98617.38;;;20.24;58.86
54329;BME280;40710;51.120;13.136;2023-08-07T09:51:07;98604.34;;;20.72;58.57
54329;BME280;40710;51.120;13.136;2023-08-07T09:53:32;98558.72;;;23.57;52.73
54329;BME280;40710;51.120;13.136;2023-08-07T09:55:57;98580.16;;;22.58;53.04
54329;BME280;40710;51.120;13.136;2023-08-07T09:58:22;98599.28;;;21.67;54.25
54329;BME280;40710;51.120;13.136;2023-08-07T10:00:47;98583.53;;;22.20;52.52
54329;BME280;40710;51.120;13.136;2023-08-07T10:03:13;98579.56;;;22.71;52.18
54329;BME280;40710;51.120;13.136;2023-08-07T10:05:38;98589.25;;;21.69;53.55
54329;BME280;40710;51.120;13.136;2023-08-07T10:08:03;98596.00;;;21.32;55.54
54329;BME280;40710;51.120;13.136;2023-08-07T10:10:32;98632.53;;;19.81;59.66
54329;BME280;40710;51.120;13.136;2023-08-07T10:13:00;98617.84;;;20.62;58.04
54329;BME280;40710;51.120;13.136;2023-08-07T10:15:25;98597.09;;;21.79;55.02
54329;BME280;40710;51.120;13.136;2023-08-07T10:17:50;98597.41;;;22.24;53.98
54329;BME280;40710;51.120;13.136;2023-08-07T10:20:15;98585.91;;;23.16;52.17
54329;BME280;40710;51.120;13.136;2023-08-07T10:22:42;98580.50;;;23.24;50.72
54329;BME280;40710;51.120;13.136;2023-08-07T10:25:07;98604.53;;;22.40;52.52
54329;BME280;40710;51.120;13.136;2023-08-07T10:27:35;98578.44;;;23.11;49.92
54329;BME280;40710;51.120;13.136;2023-08-07T10:30:06;98594.66;;;22.40;51.67
54329;BME280;40710;51.120;13.136;2023-08-07T10:32:32;98594.69;;;23.10;50.89
54329;BME280;40710;51.120;13.136;2023-08-07T10:34:57;98594.19;;;21.97;52.86
54329;BME280;40710;51.120;13.136;2023-08-07T10:40:05;98578.19;;;22.75;50.25
54329;BME280;40710;51.120;13.136;2023-08-07T10:45:19;98572.50;;;23.69;48.93
54329;BME280;40710;51.120;13.136;2023-08-07T10:48:06;98578.91;;;23.30;49.64
54329;BME280;40710;51.120;13.136;2023-08-07T10:50:33;98573.06;;;24.09;47.94
54329;BME280;40710;51.120;13.136;2023-08-07T10:53:05;98572.22;;;23.93;48.24
54329;BME280;40710;51.120;13.136;2023-08-07T10:55:43;98593.22;;;23.07;47.97
54329;BME280;40710;51.120;13.136;2023-08-07T10:58:42;98583.63;;;22.90;49.15
54329;BME280;40710;51.120;13.136;2023-08-07T11:03:53;98604.47;;;22.79;49.38
54329;BME280;40710;51.120;13.136;2023-08-07T11:06:23;98612.00;;;21.65;50.50
54329;BME280;40710;51.120;13.136;2023-08-07T11:08:49;98615.09;;;22.33;50.51
54329;BME280;40710;51.120;13.136;2023-08-07T11:11:13;98607.78;;;22.19;50.76
54329;BME280;40710;51.120;13.136;2023-08-07T11:13:39;98606.53;;;21.01;53.62
54329;BME280;40710;51.120;13.136;2023-08-07T11:16:05;98621.06;;;21.48;52.84
54329;BME280;40710;51.120;13.136;2023-08-07T11:18:30;98641.09;;;20.94;54.01
54329;BME280;40710;51.120;13.136;2023-08-07T11:20:56;98628.91;;;21.17;54.00
54329;BME280;40710;51.120;13.136;2023-08-07T11:23:24;98618.28;;;21.89;52.18
54329;BME280;40710;51.120;13.136;2023-08-07T11:25:49;98612.50;;;22.08;51.99
54329;BME280;40710;51.120;13.136;2023-08-07T11:28:22;98613.25;;;22.65;50.98
54329;BME280;40710;51.120;13.136;2023-08-07T11:30:52;98607.31;;;22.78;50.43
54329;BME280;40710;51.120;13.136;2023-08-07T11:33:20;98597.75;;;23.89;47.99
54329;BME280;40710;51.120;13.136;2023-08-07T11:35:46;98607.38;;;23.84;47.55
54329;BME280;40710;51.120;13.136;2023-08-07T11:38:11;98604.97;;;23.21;49.17
54329;BME280;40710;51.120;13.136;2023-08-07T11:40:36;98604.03;;;23.67;48.26
54329;BME280;40710;51.120;13.136;2023-08-07T11:43:01;98614.69;;;22.13;50.58
54329;BME280;40710;51.120;13.136;2023-08-07T11:45:26;98612.66;;;22.78;50.54
54329;BME280;40710;51.120;13.136;2023-08-07T11:47:51;98606.19;;;23.33;49.87
54329;BME280;40710;51.120;13.136;2023-08-07T11:50:15;98603.03;;;23.30;50.00
54329;BME280;40710;51.120;13.136;2023-08-07T11:52:40;98604.22;;;23.12;50.26
54329;BME280;40710;51.120;13.136;2023-08-07T11:55:05;98609.94;;;23.09;50.30
54329;BME280;40710;51.120;13.136;2023-08-07T11:57:31;98603.91;;;23.45;49.24
54329;BME280;40710;51.120;13.136;2023-08-07T11:59:58;98597.03;;;23.95;48.55
54329;BME280;40710;51.120;13.136;2023-08-07T12:02:26;98592.00;;;23.48;47.97
54329;BME280;40710;51.120;13.136;2023-08-07T12:04:50;98599.44;;;22.99;48.80
54329;BME280;40710;51.120;13.136;2023-08-07T12:07:18;98589.31;;;23.63;47.30
54329;BME280;40710;51.120;13.136;2023-08-07T12:09:44;98598.66;;;23.37;48.11
54329;BME280;40710;51.120;13.136;2023-08-07T12:12:11;98587.66;;;23.62;46.87
54329;BME280;40710;51.120;13.136;2023-08-07T12:14:35;98585.75;;;24.37;46.11
54329;BME280;40710;51.120;13.136;2023-08-07T12:17:03;98590.25;;;24.00;46.37
54329;BME280;40710;51.120;13.136;2023-08-07T12:19:38;98609.81;;;22.79;48.17
54329;BME280;40710;51.120;13.136;2023-08-07T12:22:09;98605.09;;;22.58;49.35
54329;BME280;40710;51.120;13.136;2023-08-07T12:24:35;98634.28;;;22.45;51.22
54329;BME280;40710;51.120;13.136;2023-08-07T12:27:00;98626.28;;;21.97;51.14
54329;BME280;40710;51.120;13.136;2023-08-07T12:29:24;98625.50;;;22.28;50.48
54329;BME280;40710;51.120;13.136;2023-08-07T12:31:53;98629.69;;;22.22;50.50
54329;BME280;40710;51.120;13.136;2023-08-07T12:34:19;98620.22;;;22.03;50.28
54329;BME280;40710;51.120;13.136;2023-08-07T12:36:44;98617.84;;;23.02;48.19
54329;BME280;40710;51.120;13.136;2023-08-07T12:39:08;98598.75;;;23.58;46.74
54329;BME280;40710;51.120;13.136;2023-08-07T12:41:33;98612.28;;;24.10;45.87
54329;BME280;40710;51.120;13.136;2023-08-07T12:43:58;98618.09;;;24.13;45.54
54329;BME280;40710;51.120;13.136;2023-08-07T12:46:25;98610.50;;;24.32;45.55
54329;BME280;40710;51.120;13.136;2023-08-07T12:48:50;98608.69;;;24.54;44.96
54329;BME280;40710;51.120;13.136;2023-08-07T12:51:16;98629.16;;;23.51;47.11
54329;BME280;40710;51.120;13.136;2023-08-07T12:53:41;98622.00;;;24.11;46.95
54329;BME280;40710;51.120;13.136;2023-08-07T12:56:06;98627.09;;;24.72;45.70